sensor_id;sensor_type;location;lat;lon;timestamp;temperature;humidity
52435;DHT22;38354;52.892;6.148;2022-12-29T04:00:45;10.80;99.90
52435;DHT22;38354;52.892;6.148;2022-12-29T04:03:11;10.80;99.90
52435;DHT22;38354;52.892;6.148;2022-12-29T04:05:37;10.80;99.90
52435;DHT22;38354;52.892;6.148;2022-12-29T04:08:02;10.80;99.90
52435;DHT22;38354;52.892;6.148;2022-12-29T04:10:28;10.80;99.90
52435;DHT22;38354;52.892;6.148;2022-12-29T04:12:53;10.80;99.90
52435;DHT22;38354;52.892;6.148;2022-12-29T04:15:19;10.70;99.90
52435;DHT22;38354;52.892;6.148;2022-12-29T04:17:44;10.70;99.90
52435;DHT22;38354;52.892;6.148;2022-12-29T04:20:10;10.60;99.90
52435;DHT22;38354;52.892;6.148;2022-12-29T04:23:12;10.60;99.90
52435;DHT22;38354;52.892;6.148;2022-12-29T04:25:38;10.60;99.90
52435;DHT22;38354;52.892;6.148;2022-12-29T04:28:03;10.50;99.90
52435;DHT22;38354;52.892;6.148;2022-12-29T04:30:29;10.50;99.90
52435;DHT22;38354;52.892;6.148;2022-12-29T04:32:55;10.50;99.90
52435;DHT22;38354;52.892;6.148;2022-12-29T04:35:20;10.40;99.90
52435;DHT22;38354;52.892;6.148;2022-12-29T04:37:46;10.40;99.90
52435;DHT22;38354;52.892;6.148;2022-12-29T04:40:12;10.30;99.90
52435;DHT22;38354;52.892;6.148;2022-12-29T04:42:38;10.30;99.90
52435;DHT22;38354;52.892;6.148;2022-12-29T04:45:05;10.30;99.90
52435;DHT22;38354;52.892;6.148;2022-12-29T04:47:31;10.30;99.90
52435;DHT22;38354;52.892;6.148;2022-12-29T04:49:56;10.30;99.90
52435;DHT22;38354;52.892;6.148;2022-12-29T04:52:22;10.20;99.90
52435;DHT22;38354;52.892;6.148;2022-12-29T04:54:47;10.20;99.90
52435;DHT22;38354;52.892;6.148;2022-12-29T04:57:13;10.30;99.90
52435;DHT22;38354;52.892;6.148;2022-12-29T04:59:39;10.30;99.90
52435;DHT22;38354;52.892;6.148;2022-12-29T05:02:04;10.30;99.90
52435;DHT22;38354;52.892;6.148;2022-12-29T05:04:30;10.30;99.90
52435;DHT22;38354;52.892;6.148;2022-12-29T05:06:57;10.30;99.90
52435;DHT22;38354;52.892;6.148;2022-12-29T05:09:22;10.30;99.90
52435;DHT22;38354;52.892;6.148;2022-12-29T05:11:49;10.30;99.90
52435;DHT22;38354;52.892;6.148;2022-12-29T05:14:15;10.20;99.90
52435;DHT22;38354;52.892;6.148;2022-12-29T05:16:40;10.20;99.90
52435;DHT22;38354;52.892;6.148;2022-12-29T05:19:06;10.20;99.90
52435;DHT22;38354;52.892;6.148;2022-12-29T05:21:32;10.10;99.90
52435;DHT22;38354;52.892;6.148;2022-12-29T05:23:57;10.10;99.90
52435;DHT22;38354;52.892;6.148;2022-12-29T05:26:23;10.10;99.90
52435;DHT22;38354;52.892;6.148;2022-12-29T05:28:49;10.00;99.90
52435;DHT22;38354;52.892;6.148;2022-12-29T05:31:14;10.00;99.90
52435;DHT22;38354;52.892;6.148;2022-12-29T05:33:40;10.00;99.90
52435;DHT22;38354;52.892;6.148;2022-12-29T05:36:07;9.90;99.90
52435;DHT22;38354;52.892;6.148;2022-12-29T05:38:33;10.00;99.90
52435;DHT22;38354;52.892;6.148;2022-12-29T05:40:59;10.00;99.90
52435;DHT22;38354;52.892;6.148;2022-12-29T05:43:25;10.00;99.90
52435;DHT22;38354;52.892;6.148;2022-12-29T05:45:52;9.90;99.90
52435;DHT22;38354;52.892;6.148;2022-12-29T05:48:18;10.00;99.90
52435;DHT22;38354;52.892;6.148;2022-12-29T05:50:47;10.00;99.90
52435;DHT22;38354;52.892;6.148;2022-12-29T05:53:13;9.90;99.90
52435;DHT22;38354;52.892;6.148;2022-12-29T05:55:39;10.00;99.90
52435;DHT22;38354;52.892;6.148;2022-12-29T05:58:05;10.00;99.90
52435;DHT22;38354;52.892;6.148;2022-12-29T06:00:30;10.00;99.90
52435;DHT22;38354;52.892;6.148;2022-12-29T06:02:56;10.00;99.90
52435;DHT22;38354;52.892;6.148;2022-12-29T06:05:22;10.00;99.90
52435;DHT22;38354;52.892;6.148;2022-12-29T06:07:47;10.00;99.90
52435;DHT22;38354;52.892;6.148;2022-12-29T06:10:13;10.00;99.90
52435;DHT22;38354;52.892;6.148;2022-12-29T06:12:39;9.90;99.90
52435;DHT22;38354;52.892;6.148;2022-12-29T06:15:05;9.90;99.90
52435;DHT22;38354;52.892;6.148;2022-12-29T06:17:30;9.90;99.90
52435;DHT22;38354;52.892;6.148;2022-12-29T06:19:56;10.00;99.90
52435;DHT22;38354;52.892;6.148;2022-12-29T06:22:22;9.90;99.90
52435;DHT22;38354;52.892;6.148;2022-12-29T06:24:47;9.90;99.90
52435;DHT22;38354;52.892;6.148;2022-12-29T06:27:13;9.90;99.90
52435;DHT22;38354;52.892;6.148;2022-12-29T06:29:39;9.90;99.90
52435;DHT22;38354;52.892;6.148;2022-12-29T06:32:06;9.90;99.90
52435;DHT22;38354;52.892;6.148;2022-12-29T06:34:32;9.90;99.90
52435;DHT22;38354;52.892;6.148;2022-12-29T06:36:57;10.00;99.90
52435;DHT22;38354;52.892;6.148;2022-12-29T06:39:23;10.00;99.90
52435;DHT22;38354;52.892;6.148;2022-12-29T06:41:52;10.00;99.90
52435;DHT22;38354;52.892;6.148;2022-12-29T06:44:18;10.00;99.90
52435;DHT22;38354;52.892;6.148;2022-12-29T06:46:43;10.00;99.90
52435;DHT22;38354;52.892;6.148;2022-12-29T06:49:09;10.10;99.90
52435;DHT22;38354;52.892;6.148;2022-12-29T06:51:35;10.00;99.90
52435;DHT22;38354;52.892;6.148;2022-12-29T06:54:00;10.00;99.90
52435;DHT22;38354;52.892;6.148;2022-12-29T06:56:26;10.00;99.90
52435;DHT22;38354;52.892;6.148;2022-12-29T06:58:52;10.00;99.90
52435;DHT22;38354;52.892;6.148;2022-12-29T07:01:17;10.00;99.90
52435;DHT22;38354;52.892;6.148;2022-12-29T07:03:43;10.00;99.90
52435;DHT22;38354;52.892;6.148;2022-12-29T07:06:09;10.00;99.90
52435;DHT22;38354;52.892;6.148;2022-12-29T07:08:34;10.00;99.90
52435;DHT22;38354;52.892;6.148;2022-12-29T07:11:00;9.90;99.90
52435;DHT22;38354;52.892;6.148;2022-12-29T07:13:26;9.90;99.90
52435;DHT22;38354;52.892;6.148;2022-12-29T07:15:52;9.90;99.90
52435;DHT22;38354;52.892;6.148;2022-12-29T07:18:17;9.90;99.90
52435;DHT22;38354;52.892;6.148;2022-12-29T07:20:43;9.90;99.90
52435;DHT22;38354;52.892;6.148;2022-12-29T07:23:09;9.90;99.90
52435;DHT22;38354;52.892;6.148;2022-12-29T07:25:35;10.00;99.90
52435;DHT22;38354;52.892;6.148;2022-12-29T07:28:02;9.90;99.90
52435;DHT22;38354;52.892;6.148;2022-12-29T07:30:28;9.90;99.90
52435;DHT22;38354;52.892;6.148;2022-12-29T07:32:53;9.90;99.90
52435;DHT22;38354;52.892;6.148;2022-12-29T07:35:19;9.90;99.90
52435;DHT22;38354;52.892;6.148;2022-12-29T07:37:45;9.90;99.90
52435;DHT22;38354;52.892;6.148;2022-12-29T07:40:11;9.90;99.90
52435;DHT22;38354;52.892;6.148;2022-12-29T07:42:36;9.90;99.90
52435;DHT22;38354;52.892;6.148;2022-12-29T07:45:02;9.90;99.90
52435;DHT22;38354;52.892;6.148;2022-12-29T07:47:28;9.90;99.90
52435;DHT22;38354;52.892;6.148;2022-12-29T07:49:54;9.90;99.90
52435;DHT22;38354;52.892;6.148;2022-12-29T07:52:20;9.90;99.90
52435;DHT22;38354;52.892;6.148;2022-12-29T07:54:46;9.90;99.90
52435;DHT22;38354;52.892;6.148;2022-12-29T07:57:11;9.90;99.90
52435;DHT22;38354;52.892;6.148;2022-12-29T07:59:37;9.90;99.90
52435;DHT22;38354;52.892;6.148;2022-12-29T08:02:03;9.90;99.90
52435;DHT22;38354;52.892;6.148;2022-12-29T08:04:28;9.90;99.90
52435;DHT22;38354;52.892;6.148;2022-12-29T08:06:54;9.90;99.90
52435;DHT22;38354;52.892;6.148;2022-12-29T08:09:20;9.90;99.90
52435;DHT22;38354;52.892;6.148;2022-12-29T08:11:45;9.80;99.90
52435;DHT22;38354;52.892;6.148;2022-12-29T08:14:11;9.80;99.90
52435;DHT22;38354;52.892;6.148;2022-12-29T08:16:37;9.80;99.90
52435;DHT22;38354;52.892;6.148;2022-12-29T08:19:03;9.80;99.90
52435;DHT22;38354;52.892;6.148;2022-12-29T08:21:30;9.90;99.90
52435;DHT22;38354;52.892;6.148;2022-12-29T08:23:56;9.90;99.90
52435;DHT22;38354;52.892;6.148;2022-12-29T08:26:22;9.90;99.90
52435;DHT22;38354;52.892;6.148;2022-12-29T08:28:48;9.80;99.90
52435;DHT22;38354;52.892;6.148;2022-12-29T08:31:14;9.80;99.90
52435;DHT22;38354;52.892;6.148;2022-12-29T08:34:00;9.90;99.90
52435;DHT22;38354;52.892;6.148;2022-12-29T08:36:26;9.90;99.90
52435;DHT22;38354;52.892;6.148;2022-12-29T08:38:52;9.90;99.90
52435;DHT22;38354;52.892;6.148;2022-12-29T08:41:18;10.00;99.90
52435;DHT22;38354;52.892;6.148;2022-12-29T08:43:48;10.00;99.90
52435;DHT22;38354;52.892;6.148;2022-12-29T08:46:14;10.00;99.90
52435;DHT22;38354;52.892;6.148;2022-12-29T08:48:40;10.00;99.90
52435;DHT22;38354;52.892;6.148;2022-12-29T08:51:05;10.00;99.90
52435;DHT22;38354;52.892;6.148;2022-12-29T08:53:31;10.00;99.90
52435;DHT22;38354;52.892;6.148;2022-12-29T08:55:58;10.00;99.90
52435;DHT22;38354;52.892;6.148;2022-12-29T08:58:25;9.90;99.90
52435;DHT22;38354;52.892;6.148;2022-12-29T09:00:53;9.90;99.90
52435;DHT22;38354;52.892;6.148;2022-12-29T09:03:19;9.80;99.90
52435;DHT22;38354;52.892;6.148;2022-12-29T09:05:50;9.80;99.90
52435;DHT22;38354;52.892;6.148;2022-12-29T09:08:16;9.70;99.90
52435;DHT22;38354;52.892;6.148;2022-12-29T09:10:43;9.70;99.90
52435;DHT22;38354;52.892;6.148;2022-12-29T09:13:10;9.70;99.90
52435;DHT22;38354;52.892;6.148;2022-12-29T09:15:36;9.70;99.90
52435;DHT22;38354;52.892;6.148;2022-12-29T09:18:01;9.70;99.90
52435;DHT22;38354;52.892;6.148;2022-12-29T09:20:27;9.70;99.90
52435;DHT22;38354;52.892;6.148;2022-12-29T09:22:52;9.70;99.90
52435;DHT22;38354;52.892;6.148;2022-12-29T09:25:19;9.70;99.90
52435;DHT22;38354;52.892;6.148;2022-12-29T09:27:45;9.70;99.90
52435;DHT22;38354;52.892;6.148;2022-12-29T09:30:13;9.70;99.90
52435;DHT22;38354;52.892;6.148;2022-12-29T09:32:40;9.80;99.90
52435;DHT22;38354;52.892;6.148;2022-12-29T09:35:06;9.80;99.90
52435;DHT22;38354;52.892;6.148;2022-12-29T09:37:32;9.80;99.90
52435;DHT22;38354;52.892;6.148;2022-12-29T09:39:58;9.70;99.90
52435;DHT22;38354;52.892;6.148;2022-12-29T09:42:29;9.70;99.90
52435;DHT22;38354;52.892;6.148;2022-12-29T09:47:29;9.60;99.90
52435;DHT22;38354;52.892;6.148;2022-12-29T09:50:11;9.50;99.90
52435;DHT22;38354;52.892;6.148;2022-12-29T09:55:49;9.40;99.90
52435;DHT22;38354;52.892;6.148;2022-12-29T09:58:39;9.30;99.90
52435;DHT22;38354;52.892;6.148;2022-12-29T10:01:07;9.30;99.90
52435;DHT22;38354;52.892;6.148;2022-12-29T10:03:47;9.30;99.90
52435;DHT22;38354;52.892;6.148;2022-12-29T10:06:24;9.20;99.90
52435;DHT22;38354;52.892;6.148;2022-12-29T10:09:15;9.20;99.90
52435;DHT22;38354;52.892;6.148;2022-12-29T10:17:43;9.10;99.90
52435;DHT22;38354;52.892;6.148;2022-12-29T10:25:48;9.10;99.90
52435;DHT22;38354;52.892;6.148;2022-12-29T10:28:24;9.10;99.90
52435;DHT22;38354;52.892;6.148;2022-12-29T10:30:57;9.10;99.90
52435;DHT22;38354;52.892;6.148;2022-12-29T10:33:34;9.00;99.90
52435;DHT22;38354;52.892;6.148;2022-12-29T10:38:48;8.90;99.90
52435;DHT22;38354;52.892;6.148;2022-12-29T10:41:25;8.90;99.90
52435;DHT22;38354;52.892;6.148;2022-12-29T10:43:54;8.90;99.90
52435;DHT22;38354;52.892;6.148;2022-12-29T10:46:30;8.80;99.90
52435;DHT22;38354;52.892;6.148;2022-12-29T10:48:58;8.80;99.90
52435;DHT22;38354;52.892;6.148;2022-12-29T10:51:26;8.70;99.90
52435;DHT22;38354;52.892;6.148;2022-12-29T10:54:16;8.80;99.90
52435;DHT22;38354;52.892;6.148;2022-12-29T10:57:28;8.70;99.90
52435;DHT22;38354;52.892;6.148;2022-12-29T10:59:34;8.70;99.90
52435;DHT22;38354;52.892;6.148;2022-12-29T11:07:20;8.70;99.90
52435;DHT22;38354;52.892;6.148;2022-12-29T11:09:47;8.70;99.90
52435;DHT22;38354;52.892;6.148;2022-12-29T11:12:30;8.70;99.90
52435;DHT22;38354;52.892;6.148;2022-12-29T11:17:27;8.80;99.90
52435;DHT22;38354;52.892;6.148;2022-12-29T11:19:52;8.80;99.90
52435;DHT22;38354;52.892;6.148;2022-12-29T11:22:27;8.80;99.90
52435;DHT22;38354;52.892;6.148;2022-12-29T11:24:54;9.00;99.90
52435;DHT22;38354;52.892;6.148;2022-12-29T11:27:29;9.00;99.90
52435;DHT22;38354;52.892;6.148;2022-12-29T11:29:55;9.00;99.90
52435;DHT22;38354;52.892;6.148;2022-12-29T11:32:27;9.00;99.90
52435;DHT22;38354;52.892;6.148;2022-12-29T11:34:53;9.10;99.90
52435;DHT22;38354;52.892;6.148;2022-12-29T11:37:31;9.20;99.90
52435;DHT22;38354;52.892;6.148;2022-12-29T11:45:06;9.50;99.90
52435;DHT22;38354;52.892;6.148;2022-12-29T11:47:32;9.40;99.90
52435;DHT22;38354;52.892;6.148;2022-12-29T11:50:01;9.40;99.90
52435;DHT22;38354;52.892;6.148;2022-12-29T11:52:31;9.40;99.90
52435;DHT22;38354;52.892;6.148;2022-12-29T11:55:02;9.40;99.90
52435;DHT22;38354;52.892;6.148;2022-12-29T11:57:29;9.30;99.90
52435;DHT22;38354;52.892;6.148;2022-12-29T11:59:57;9.20;99.90
52435;DHT22;38354;52.892;6.148;2022-12-29T12:07:40;9.40;99.90
52435;DHT22;38354;52.892;6.148;2022-12-29T12:15:39;9.80;99.90
52435;DHT22;38354;52.892;6.148;2022-12-29T12:18:18;10.00;99.90
52435;DHT22;38354;52.892;6.148;2022-12-29T12:20:54;10.10;99.90
52435;DHT22;38354;52.892;6.148;2022-12-29T12:23:27;10.00;99.90
52435;DHT22;38354;52.892;6.148;2022-12-29T12:26:18;9.90;99.90
52435;DHT22;38354;52.892;6.148;2022-12-29T12:31:19;10.20;99.90
52435;DHT22;38354;52.892;6.148;2022-12-29T12:33:50;10.30;99.90
52435;DHT22;38354;52.892;6.148;2022-12-29T12:36:35;10.40;99.90
52435;DHT22;38354;52.892;6.148;2022-12-29T12:39:18;10.50;99.90
52435;DHT22;38354;52.892;6.148;2022-12-29T12:50:51;10.50;99.90
52435;DHT22;38354;52.892;6.148;2022-12-29T13:02:26;10.50;99.90
52435;DHT22;38354;52.892;6.148;2022-12-29T13:18:58;9.90;99.90
52435;DHT22;38354;52.892;6.148;2022-12-29T13:30:10;10.10;99.90
52435;DHT22;38354;52.892;6.148;2022-12-29T13:35:22;10.00;99.90
52435;DHT22;38354;52.892;6.148;2022-12-29T13:38:39;10.00;99.90
52435;DHT22;38354;52.892;6.148;2022-12-29T13:40:49;10.00;99.90
52435;DHT22;38354;52.892;6.148;2022-12-29T13:43:16;9.90;99.90
52435;DHT22;38354;52.892;6.148;2022-12-29T13:45:45;9.90;99.90
52435;DHT22;38354;52.892;6.148;2022-12-29T13:48:17;10.00;99.90
52435;DHT22;38354;52.892;6.148;2022-12-29T13:50:53;10.00;99.90
52435;DHT22;38354;52.892;6.148;2022-12-29T13:56:18;9.80;99.90
52435;DHT22;38354;52.892;6.148;2022-12-29T14:01:39;9.70;99.90
52435;DHT22;38354;52.892;6.148;2022-12-29T14:04:14;9.60;99.90
52435;DHT22;38354;52.892;6.148;2022-12-29T14:06:47;9.60;99.90
52435;DHT22;38354;52.892;6.148;2022-12-29T14:14:48;9.40;99.90
52435;DHT22;38354;52.892;6.148;2022-12-29T14:17:19;9.40;99.90
52435;DHT22;38354;52.892;6.148;2022-12-29T14:19:46;9.30;99.90
52435;DHT22;38354;52.892;6.148;2022-12-29T14:22:26;9.30;99.90
52435;DHT22;38354;52.892;6.148;2022-12-29T14:24:52;9.20;99.90
52435;DHT22;38354;52.892;6.148;2022-12-29T14:29:48;9.20;99.90
52435;DHT22;38354;52.892;6.148;2022-12-29T14:34:47;9.20;99.90
52435;DHT22;38354;52.892;6.148;2022-12-29T14:37:27;9.20;99.90
52435;DHT22;38354;52.892;6.148;2022-12-29T14:40:06;9.20;99.90
52435;DHT22;38354;52.892;6.148;2022-12-29T14:42:39;9.20;99.90
52435;DHT22;38354;52.892;6.148;2022-12-29T14:47:42;9.10;99.90
52435;DHT22;38354;52.892;6.148;2022-12-29T14:52:56;9.10;99.90
52435;DHT22;38354;52.892;6.148;2022-12-29T14:55:43;9.10;99.90
52435;DHT22;38354;52.892;6.148;2022-12-29T15:00:42;9.00;99.90
52435;DHT22;38354;52.892;6.148;2022-12-29T15:05:51;9.00;99.90
52435;DHT22;38354;52.892;6.148;2022-12-29T15:08:20;9.10;99.90
52435;DHT22;38354;52.892;6.148;2022-12-29T15:11:31;9.00;99.90
52435;DHT22;38354;52.892;6.148;2022-12-29T15:13:55;9.00;99.90
52435;DHT22;38354;52.892;6.148;2022-12-29T15:16:33;9.00;99.90
52435;DHT22;38354;52.892;6.148;2022-12-29T15:19:01;9.00;99.90
52435;DHT22;38354;52.892;6.148;2022-12-29T15:21:32;9.00;99.90
52435;DHT22;38354;52.892;6.148;2022-12-29T15:23:59;8.90;99.90
52435;DHT22;38354;52.892;6.148;2022-12-29T15:26:46;8.90;99.90
52435;DHT22;38354;52.892;6.148;2022-12-29T15:30:00;8.90;99.90
52435;DHT22;38354;52.892;6.148;2022-12-29T15:32:58;8.90;99.90
52435;DHT22;38354;52.892;6.148;2022-12-29T15:35:33;8.90;99.90
52435;DHT22;38354;52.892;6.148;2022-12-29T15:38:00;8.90;99.90
52435;DHT22;38354;52.892;6.148;2022-12-29T15:40:37;8.90;99.90
52435;DHT22;38354;52.892;6.148;2022-12-29T15:45:54;8.90;99.90
52435;DHT22;38354;52.892;6.148;2022-12-29T15:48:23;8.90;99.90
52435;DHT22;38354;52.892;6.148;2022-12-29T15:50:50;8.90;99.90
52435;DHT22;38354;52.892;6.148;2022-12-29T15:53:28;9.00;99.90
52435;DHT22;38354;52.892;6.148;2022-12-29T15:55:57;9.00;99.90
52435;DHT22;38354;52.892;6.148;2022-12-29T15:58:26;9.00;99.90
52435;DHT22;38354;52.892;6.148;2022-12-29T16:00:54;9.00;99.90
52435;DHT22;38354;52.892;6.148;2022-12-29T16:03:23;9.10;99.90
52435;DHT22;38354;52.892;6.148;2022-12-29T16:06:32;9.10;99.90
52435;DHT22;38354;52.892;6.148;2022-12-29T16:09:10;9.10;99.90
52435;DHT22;38354;52.892;6.148;2022-12-29T16:11:43;9.10;99.90
52435;DHT22;38354;52.892;6.148;2022-12-29T16:14:16;9.10;99.90
52435;DHT22;38354;52.892;6.148;2022-12-29T16:16:43;9.10;99.90
52435;DHT22;38354;52.892;6.148;2022-12-29T16:19:21;9.10;99.90
52435;DHT22;38354;52.892;6.148;2022-12-29T16:21:48;9.10;99.90
52435;DHT22;38354;52.892;6.148;2022-12-29T16:24:16;9.00;99.90
52435;DHT22;38354;52.892;6.148;2022-12-29T16:29:29;8.90;99.90
52435;DHT22;38354;52.892;6.148;2022-12-29T16:31:57;8.80;99.90
52435;DHT22;38354;52.892;6.148;2022-12-29T16:34:46;8.70;99.90
52435;DHT22;38354;52.892;6.148;2022-12-29T16:37:32;8.60;99.90
52435;DHT22;38354;52.892;6.148;2022-12-29T16:48:09;8.20;99.90
52435;DHT22;38354;52.892;6.148;2022-12-29T16:50:38;8.10;99.90
52435;DHT22;38354;52.892;6.148;2022-12-29T16:53:05;8.00;99.90
52435;DHT22;38354;52.892;6.148;2022-12-29T16:55:31;8.00;99.90
52435;DHT22;38354;52.892;6.148;2022-12-29T16:57:58;8.00;99.90
52435;DHT22;38354;52.892;6.148;2022-12-29T17:00:34;8.00;99.90
52435;DHT22;38354;52.892;6.148;2022-12-29T17:03:01;8.00;99.90
52435;DHT22;38354;52.892;6.148;2022-12-29T17:05:27;8.00;99.90
52435;DHT22;38354;52.892;6.148;2022-12-29T17:07:53;8.00;99.90
52435;DHT22;38354;52.892;6.148;2022-12-29T17:10:20;8.00;99.90
52435;DHT22;38354;52.892;6.148;2022-12-29T17:12:47;8.00;99.90
52435;DHT22;38354;52.892;6.148;2022-12-29T17:15:15;8.00;99.90
52435;DHT22;38354;52.892;6.148;2022-12-29T17:17:45;7.90;99.90
52435;DHT22;38354;52.892;6.148;2022-12-29T17:20:24;8.00;99.90
52435;DHT22;38354;52.892;6.148;2022-12-29T17:22:51;8.00;99.90
52435;DHT22;38354;52.892;6.148;2022-12-29T17:25:36;8.00;99.90
52435;DHT22;38354;52.892;6.148;2022-12-29T17:28:23;8.00;99.90
52435;DHT22;38354;52.892;6.148;2022-12-29T17:30:51;8.00;99.90
52435;DHT22;38354;52.892;6.148;2022-12-29T17:33:18;8.10;99.90
52435;DHT22;38354;52.892;6.148;2022-12-29T17:35:45;8.10;99.90
52435;DHT22;38354;52.892;6.148;2022-12-29T17:38:27;8.10;99.90
52435;DHT22;38354;52.892;6.148;2022-12-29T17:40:53;8.10;99.90
52435;DHT22;38354;52.892;6.148;2022-12-29T17:43:19;8.10;99.90
52435;DHT22;38354;52.892;6.148;2022-12-29T17:45:48;8.20;99.90
52435;DHT22;38354;52.892;6.148;2022-12-29T17:48:17;8.20;99.90
52435;DHT22;38354;52.892;6.148;2022-12-29T17:50:45;8.20;99.90
52435;DHT22;38354;52.892;6.148;2022-12-29T17:53:14;8.20;99.90
52435;DHT22;38354;52.892;6.148;2022-12-29T17:55:41;8.20;99.90
52435;DHT22;38354;52.892;6.148;2022-12-29T17:58:18;8.30;99.90
52435;DHT22;38354;52.892;6.148;2022-12-29T18:00:45;8.30;99.90
52435;DHT22;38354;52.892;6.148;2022-12-29T18:03:15;8.30;99.90
52435;DHT22;38354;52.892;6.148;2022-12-29T18:05:41;8.30;99.90
52435;DHT22;38354;52.892;6.148;2022-12-29T18:08:09;8.30;99.90
52435;DHT22;38354;52.892;6.148;2022-12-29T18:10:35;8.30;99.90
52435;DHT22;38354;52.892;6.148;2022-12-29T18:13:01;8.30;99.90
52435;DHT22;38354;52.892;6.148;2022-12-29T18:15:33;8.40;99.90
52435;DHT22;38354;52.892;6.148;2022-12-29T18:18:19;8.40;99.90
52435;DHT22;38354;52.892;6.148;2022-12-29T18:20:46;8.40;99.90
52435;DHT22;38354;52.892;6.148;2022-12-29T18:23:26;8.40;99.90
52435;DHT22;38354;52.892;6.148;2022-12-29T18:25:59;8.40;99.90
52435;DHT22;38354;52.892;6.148;2022-12-29T18:28:26;8.40;99.90
52435;DHT22;38354;52.892;6.148;2022-12-29T18:30:52;8.50;99.90
52435;DHT22;38354;52.892;6.148;2022-12-29T18:33:19;8.50;99.90
52435;DHT22;38354;52.892;6.148;2022-12-29T18:35:56;8.50;99.90
52435;DHT22;38354;52.892;6.148;2022-12-29T18:38:22;8.50;99.90
52435;DHT22;38354;52.892;6.148;2022-12-29T18:40:48;8.50;99.90
52435;DHT22;38354;52.892;6.148;2022-12-29T18:43:15;8.50;99.90
52435;DHT22;38354;52.892;6.148;2022-12-29T18:45:41;8.50;99.90
52435;DHT22;38354;52.892;6.148;2022-12-29T18:48:11;8.50;99.90
52435;DHT22;38354;52.892;6.148;2022-12-29T18:50:36;8.40;99.90
52435;DHT22;38354;52.892;6.148;2022-12-29T18:53:02;8.40;99.90
52435;DHT22;38354;52.892;6.148;2022-12-29T18:55:28;8.30;99.90
52435;DHT22;38354;52.892;6.148;2022-12-29T18:57:54;8.30;99.90
52435;DHT22;38354;52.892;6.148;2022-12-29T19:00:20;8.30;99.90
52435;DHT22;38354;52.892;6.148;2022-12-29T19:02:47;8.30;99.90
52435;DHT22;38354;52.892;6.148;2022-12-29T19:05:24;8.30;99.90
52435;DHT22;38354;52.892;6.148;2022-12-29T19:07:51;8.30;99.90
52435;DHT22;38354;52.892;6.148;2022-12-29T19:10:18;8.20;99.90
52435;DHT22;38354;52.892;6.148;2022-12-29T19:12:44;8.20;99.90
52435;DHT22;38354;52.892;6.148;2022-12-29T19:15:23;8.30;99.90
52435;DHT22;38354;52.892;6.148;2022-12-29T19:17:50;8.30;99.90
52435;DHT22;38354;52.892;6.148;2022-12-29T19:22:58;8.20;99.90
52435;DHT22;38354;52.892;6.148;2022-12-29T19:25:24;8.20;99.90
52435;DHT22;38354;52.892;6.148;2022-12-29T19:27:50;8.20;99.90
52435;DHT22;38354;52.892;6.148;2022-12-29T19:30:16;8.20;99.90
52435;DHT22;38354;52.892;6.148;2022-12-29T19:32:42;8.10;99.90
52435;DHT22;38354;52.892;6.148;2022-12-29T19:35:09;8.10;99.90
52435;DHT22;38354;52.892;6.148;2022-12-29T19:37:36;8.10;99.90
52435;DHT22;38354;52.892;6.148;2022-12-29T19:40:05;8.10;99.90
52435;DHT22;38354;52.892;6.148;2022-12-29T19:42:32;8.10;99.90
52435;DHT22;38354;52.892;6.148;2022-12-29T19:44:57;8.10;99.90
52435;DHT22;38354;52.892;6.148;2022-12-29T19:47:23;8.10;99.90
52435;DHT22;38354;52.892;6.148;2022-12-29T19:49:48;8.10;99.90
52435;DHT22;38354;52.892;6.148;2022-12-29T19:52:14;8.10;99.90
52435;DHT22;38354;52.892;6.148;2022-12-29T19:54:40;8.10;99.90
52435;DHT22;38354;52.892;6.148;2022-12-29T19:57:05;8.10;99.90
52435;DHT22;38354;52.892;6.148;2022-12-29T19:59:31;8.10;99.90
52435;DHT22;38354;52.892;6.148;2022-12-29T20:01:57;8.10;99.90
52435;DHT22;38354;52.892;6.148;2022-12-29T20:04:22;8.00;99.90
52435;DHT22;38354;52.892;6.148;2022-12-29T20:06:48;8.00;99.90
52435;DHT22;38354;52.892;6.148;2022-12-29T20:09:14;8.00;99.90
52435;DHT22;38354;52.892;6.148;2022-12-29T20:11:39;8.00;99.90
52435;DHT22;38354;52.892;6.148;2022-12-29T20:14:05;8.00;99.90
52435;DHT22;38354;52.892;6.148;2022-12-29T20:16:31;8.00;99.90
52435;DHT22;38354;52.892;6.148;2022-12-29T20:18:56;8.00;99.90
52435;DHT22;38354;52.892;6.148;2022-12-29T20:21:23;8.00;99.90
52435;DHT22;38354;52.892;6.148;2022-12-29T20:23:51;7.90;99.90
52435;DHT22;38354;52.892;6.148;2022-12-29T20:26:22;7.90;99.90
52435;DHT22;38354;52.892;6.148;2022-12-29T20:28:48;7.90;99.90
52435;DHT22;38354;52.892;6.148;2022-12-29T20:31:18;7.90;99.90
52435;DHT22;38354;52.892;6.148;2022-12-29T20:33:44;7.90;99.90
52435;DHT22;38354;52.892;6.148;2022-12-29T20:36:14;7.80;99.90
52435;DHT22;38354;52.892;6.148;2022-12-29T20:38:41;7.80;99.90
52435;DHT22;38354;52.892;6.148;2022-12-29T20:41:07;7.80;99.90
52435;DHT22;38354;52.892;6.148;2022-12-29T20:43:33;7.80;99.90
52435;DHT22;38354;52.892;6.148;2022-12-29T20:45:59;7.80;99.90
52435;DHT22;38354;52.892;6.148;2022-12-29T20:48:25;7.70;99.90
52435;DHT22;38354;52.892;6.148;2022-12-29T20:50:51;7.70;99.90
52435;DHT22;38354;52.892;6.148;2022-12-29T20:53:16;7.70;99.90
52435;DHT22;38354;52.892;6.148;2022-12-29T20:55:42;7.60;99.90
52435;DHT22;38354;52.892;6.148;2022-12-29T20:58:08;7.60;99.90
52435;DHT22;38354;52.892;6.148;2022-12-29T21:00:33;7.60;99.90
52435;DHT22;38354;52.892;6.148;2022-12-29T21:02:59;7.60;99.90
52435;DHT22;38354;52.892;6.148;2022-12-29T21:05:26;7.60;99.90
52435;DHT22;38354;52.892;6.148;2022-12-29T21:07:55;7.50;99.90
52435;DHT22;38354;52.892;6.148;2022-12-29T21:10:23;7.50;99.90
52435;DHT22;38354;52.892;6.148;2022-12-29T21:12:49;7.50;99.90
52435;DHT22;38354;52.892;6.148;2022-12-29T21:15:15;7.50;99.90
52435;DHT22;38354;52.892;6.148;2022-12-29T21:17:41;7.50;99.90
52435;DHT22;38354;52.892;6.148;2022-12-29T21:20:08;7.50;99.90
52435;DHT22;38354;52.892;6.148;2022-12-29T21:22:34;7.50;99.90
52435;DHT22;38354;52.892;6.148;2022-12-29T21:24:59;7.50;99.90
52435;DHT22;38354;52.892;6.148;2022-12-29T21:27:25;7.50;99.90
52435;DHT22;38354;52.892;6.148;2022-12-29T21:29:50;7.60;99.90
52435;DHT22;38354;52.892;6.148;2022-12-29T21:32:16;7.60;99.90
52435;DHT22;38354;52.892;6.148;2022-12-29T21:34:41;7.60;99.90
52435;DHT22;38354;52.892;6.148;2022-12-29T21:37:07;7.60;99.90
52435;DHT22;38354;52.892;6.148;2022-12-29T21:39:33;7.60;99.90
52435;DHT22;38354;52.892;6.148;2022-12-29T21:41:58;7.60;99.90
52435;DHT22;38354;52.892;6.148;2022-12-29T21:44:27;7.60;99.90
52435;DHT22;38354;52.892;6.148;2022-12-29T21:47:11;7.60;99.90
52435;DHT22;38354;52.892;6.148;2022-12-29T21:49:37;7.60;99.90
52435;DHT22;38354;52.892;6.148;2022-12-29T21:52:03;7.70;99.90
52435;DHT22;38354;52.892;6.148;2022-12-29T21:54:29;7.60;99.90
52435;DHT22;38354;52.892;6.148;2022-12-29T21:57:16;7.60;99.90
52435;DHT22;38354;52.892;6.148;2022-12-29T22:00:07;7.60;99.90
52435;DHT22;38354;52.892;6.148;2022-12-29T22:02:51;7.60;99.90
52435;DHT22;38354;52.892;6.148;2022-12-29T22:05:35;7.60;99.90
52435;DHT22;38354;52.892;6.148;2022-12-29T22:08:19;7.50;99.90